Coatsburg, Illinois
Current Conditions -  °F | °C
As of 6:54 AM on Sunday 23 Nov 2014 (Local Time) from KUIN Reporting Station
Light Rain Light Rain  
Wind Chill: 51°   Ceiling: 8500
Heat Index: 51°   Visibility: 7mi
Dew Point: 48°   Wind: 12mph
Humidity: 89%   Direction: 160°SSE
Pressure: 29.64"   Gusts: NA
Location:  40.03°N, 91.16°W
Report Text: KUIN 231254Z AUTO 16010KT 7SM -RA OVC085 11/09 A2964 RMK AO2 SLP038 P0001 T01060089
Loading
Personal Weather Stations






























Interactive Weather Map New forecast layout! Learn more

10-Day Weather Forecast

Advertisements
Track Severe Weather on mobile